Time;durP1;ratioP1;P1;durP2;ratioP2;P2;SDS_P1;SDS_P2;PMS_P1;PMS_P2;Temp;Humidity;BMP_temperature;BMP_pressure;BME280_temperature;BME280_humidity;BME280_pressure;Samples;Min_cycle;Max_cycle;Signal;HPM_P1;HPM_P2
2022/07/01 00:02:00;;;;;;;1.52;0.90;;;14.20;74.10;;;;;;4997465;28;20077;-88
2022/07/01 00:04:27;;;;;;;1.70;1.23;;;14.30;74.40;;;;;;4995757;28;20091;-88
2022/07/01 00:06:58;;;;;;;1.48;1.02;;;14.30;73.70;;;;;;5000961;28;20067;-88
2022/07/01 00:09:24;;;;;;;2.15;1.40;;;14.30;73.40;;;;;;5002773;28;20066;-87
2022/07/01 00:11:50;;;;;;;2.35;1.35;;;14.20;73.50;;;;;;4995822;28;20034;-87
2022/07/01 00:14:16;;;;;;;1.55;1.08;;;14.30;73.50;;;;;;4987977;28;20401;-88
2022/07/01 00:16:42;;;;;;;1.70;1.08;;;14.20;73.10;;;;;;4975494;28;20030;-88
2022/07/01 00:19:08;;;;;;;3.03;1.50;;;14.20;73.10;;;;;;4978358;28;20053;-87
2022/07/01 00:21:33;;;;;;;2.55;1.20;;;14.20;73.70;;;;;;4976806;28;20038;-88
2022/07/01 00:24:02;;;;;;;1.67;1.27;;;14.20;73.20;;;;;;4981424;28;20019;-87
2022/07/01 00:26:27;;;;;;;2.15;1.67;;;14.20;73.20;;;;;;4979931;28;20064;-88
2022/07/01 00:28:53;;;;;;;2.00;1.15;;;14.10;73.00;;;;;;4979986;28;20127;-89
2022/07/01 00:31:19;;;;;;;1.65;1.20;;;14.00;73.50;;;;;;4981971;28;20074;-89
2022/07/01 00:33:44;;;;;;;1.67;1.20;;;14.00;73.60;;;;;;4978709;28;20030;-88
2022/07/01 00:36:10;;;;;;;1.63;1.02;;;14.10;73.50;;;;;;4982000;28;20035;-88
2022/07/01 00:38:36;;;;;;;2.97;1.38;;;14.10;73.70;;;;;;4999415;28;20485;-88
2022/07/01 00:41:01;;;;;;;3.38;1.65;;;14.00;73.90;;;;;;4999682;28;20512;-89
2022/07/01 00:43:27;;;;;;;3.53;1.88;;;14.00;73.40;;;;;;4998727;28;20018;-88
2022/07/01 00:45:53;;;;;;;3.50;1.90;;;13.90;74.30;;;;;;4997222;28;20031;-88
2022/07/01 00:48:21;;;;;;;2.47;1.60;;;13.90;74.30;;;;;;5000115;28;20094;-88
2022/07/01 00:50:47;;;;;;;2.67;1.55;;;14.00;73.60;;;;;;4997812;28;20030;-89
2022/07/01 00:53:16;;;;;;;2.55;1.60;;;14.00;73.50;;;;;;4983389;28;20027;-88
2022/07/01 00:55:42;;;;;;;1.92;1.27;;;13.90;73.80;;;;;;4980944;28;20030;-88
2022/07/01 00:58:09;;;;;;;2.38;1.65;;;13.90;74.10;;;;;;4979276;28;20050;-88
2022/07/01 01:00:37;;;;;;;4.53;1.63;;;13.80;74.10;;;;;;4986512;28;20045;-88
2022/07/01 01:03:06;;;;;;;4.60;1.63;;;13.80;73.90;;;;;;4997401;28;20077;-88
2022/07/01 01:05:32;;;;;;;2.95;1.50;;;13.90;74.50;;;;;;5001192;28;20093;-88
2022/07/01 01:07:57;;;;;;;2.70;1.60;;;13.80;73.90;;;;;;5009531;28;20031;-89
2022/07/01 01:10:25;;;;;;;2.90;1.55;;;13.80;73.70;;;;;;5000912;28;20085;-88
2022/07/01 01:12:51;;;;;;;2.65;1.70;;;13.80;74.10;;;;;;5008793;28;20026;-88
2022/07/01 01:15:18;;;;;;;3.97;1.80;;;13.70;74.60;;;;;;4979742;28;20035;-88
2022/07/01 01:17:46;;;;;;;1.70;1.30;;;13.70;74.90;;;;;;4978148;28;20027;-87
2022/07/01 01:20:16;;;;;;;5.68;1.65;;;13.70;74.80;;;;;;4991822;28;20026;-87
2022/07/01 01:22:47;;;;;;;2.25;1.60;;;13.60;75.00;;;;;;5000384;28;20034;-88
2022/07/01 01:25:12;;;;;;;2.25;1.60;;;13.60;74.90;;;;;;4981976;28;20115;-88
2022/07/01 01:27:38;;;;;;;2.97;1.42;;;13.60;75.30;;;;;;4988369;28;20497;-89
2022/07/01 01:30:08;;;;;;;2.05;1.50;;;13.60;74.90;;;;;;4997498;28;20041;-88
2022/07/01 01:32:34;;;;;;;2.50;2.20;;;13.70;74.70;;;;;;4998631;28;20373;-88
2022/07/01 01:35:00;;;;;;;3.88;1.60;;;13.70;74.50;;;;;;4998529;28;20102;-90
2022/07/01 01:37:46;;;;;;;2.72;1.83;;;13.70;74.30;;;;;;4998345;28;20030;-89
2022/07/01 01:40:15;;;;;;;3.40;1.85;;;13.70;74.00;;;;;;4980164;28;20027;-88
2022/07/01 01:42:43;;;;;;;2.60;1.83;;;13.70;74.10;;;;;;4978718;28;20042;-88
2022/07/01 01:45:09;;;;;;;3.60;1.70;;;13.60;74.30;;;;;;4981085;28;20057;-87
2022/07/01 01:47:35;;;;;;;3.90;1.73;;;13.60;75.00;;;;;;4978695;28;20031;-87
2022/07/01 01:50:01;;;;;;;2.25;1.60;;;13.50;75.70;;;;;;4980747;28;20038;-88
2022/07/01 01:52:26;;;;;;;2.75;1.73;;;13.50;74.90;;;;;;4978395;28;20097;-88
2022/07/01 01:54:54;;;;;;;2.50;1.92;;;13.50;74.80;;;;;;4979227;28;20110;-89
2022/07/01 01:57:20;;;;;;;2.08;1.65;;;13.50;74.50;;;;;;4997001;28;20468;-88
2022/07/01 01:59:46;;;;;;;5.35;2.10;;;13.50;74.30;;;;;;4996635;28;20112;-88
2022/07/01 02:02:11;;;;;;;3.05;1.90;;;13.40;74.70;;;;;;4994793;28;20018;-88
2022/07/01 02:04:37;;;;;;;2.78;2.08;;;13.40;74.70;;;;;;4988609;28;20038;-89
2022/07/01 02:07:04;;;;;;;1.92;1.52;;;13.50;74.50;;;;;;4997963;28;20034;-88
2022/07/01 02:09:30;;;;;;;3.17;2.15;;;13.40;74.10;;;;;;5001579;28;20050;-88
2022/07/01 02:11:56;;;;;;;3.17;1.77;;;13.30;74.90;;;;;;4997521;28;20030;-88
2022/07/01 02:14:22;;;;;;;3.15;1.95;;;13.30;75.10;;;;;;4998444;28;20018;-89
2022/07/01 02:16:47;;;;;;;2.60;2.10;;;13.30;75.40;;;;;;4992157;28;20034;-88
2022/07/01 02:19:13;;;;;;;2.83;2.03;;;13.30;75.50;;;;;;4979999;28;20070;-88
2022/07/01 02:21:39;;;;;;;5.65;2.00;;;13.30;75.00;;;;;;4977952;28;20397;-88
2022/07/01 02:24:05;;;;;;;5.20;2.47;;;13.30;74.90;;;;;;4979757;28;20026;-88
2022/07/01 02:26:30;;;;;;;3.50;2.45;;;13.30;75.40;;;;;;4978017;28;20038;-88
2022/07/01 02:28:56;;;;;;;2.72;1.80;;;13.20;75.40;;;;;;4977220;28;20029;-88
2022/07/01 02:31:22;;;;;;;2.80;2.15;;;13.20;75.80;;;;;;4977897;28;20031;-88
2022/07/01 02:33:48;;;;;;;3.40;2.47;;;13.20;75.30;;;;;;4976332;28;20081;-89
2022/07/01 02:36:13;;;;;;;3.15;1.98;;;13.30;74.40;;;;;;4979268;28;20088;-88
2022/07/01 02:38:39;;;;;;;3.45;2.33;;;13.30;74.70;;;;;;4977755;28;20023;-88
2022/07/01 02:41:04;;;;;;;2.53;1.90;;;13.30;74.50;;;;;;4988508;28;20058;-88
2022/07/01 02:43:30;;;;;;;4.63;2.40;;;13.20;74.90;;;;;;4996114;28;20054;-89
2022/07/01 02:46:03;;;;;;;2.67;2.10;;;13.20;75.10;;;;;;4996400;28;20031;-87
2022/07/01 02:48:28;;;;;;;2.92;1.80;;;13.10;75.20;;;;;;4993446;28;20129;-88
2022/07/01 02:50:54;;;;;;;4.70;2.08;;;13.00;75.30;;;;;;4977057;28;20117;-88
2022/07/01 02:53:20;;;;;;;3.55;2.17;;;13.00;75.70;;;;;;4982583;28;20109;-88
2022/07/01 02:55:46;;;;;;;3.58;2.55;;;13.00;75.60;;;;;;4995776;28;20093;-89
2022/07/01 02:58:11;;;;;;;3.28;2.20;;;12.90;75.60;;;;;;5011606;28;20046;-88
2022/07/01 03:00:37;;;;;;;2.60;1.83;;;12.90;75.40;;;;;;4985498;28;20033;-88
2022/07/01 03:03:05;;;;;;;2.60;1.98;;;12.80;75.80;;;;;;4997483;28;20035;-88
2022/07/01 03:05:31;;;;;;;2.05;1.60;;;12.80;76.10;;;;;;4998397;28;20034;-89
2022/07/01 03:07:57;;;;;;;2.80;1.63;;;12.80;75.40;;;;;;4984733;28;20026;-87
2022/07/01 03:10:22;;;;;;;5.55;1.80;;;12.80;76.10;;;;;;4979474;28;20115;-87
2022/07/01 03:12:48;;;;;;;2.83;2.55;;;12.80;75.60;;;;;;4975820;28;20011;-89
2022/07/01 03:15:15;;;;;;;2.65;1.95;;;12.80;75.90;;;;;;4977878;28;20488;-87
2022/07/01 03:17:43;;;;;;;5.30;2.00;;;12.80;76.00;;;;;;4976214;28;20556;-88
2022/07/01 03:20:13;;;;;;;4.47;2.00;;;12.80;75.30;;;;;;4977788;28;20121;-88
2022/07/01 03:22:40;;;;;;;2.58;1.65;;;12.90;74.90;;;;;;4977004;28;20505;-89
2022/07/01 03:25:07;;;;;;;2.80;1.92;;;12.90;74.80;;;;;;4977078;28;20031;-88
2022/07/01 03:27:33;;;;;;;2.70;2.08;;;12.90;74.50;;;;;;4978933;28;20034;-87
2022/07/01 03:29:59;;;;;;;3.30;2.00;;;12.80;74.70;;;;;;4984938;28;20030;-87
2022/07/01 03:32:25;;;;;;;1.70;1.60;;;12.80;74.80;;;;;;4998154;28;20099;-89
2022/07/01 03:34:51;;;;;;;2.13;1.77;;;12.80;74.70;;;;;;4995129;28;20452;-88
2022/07/01 03:37:18;;;;;;;5.78;2.30;;;12.80;74.50;;;;;;4995397;28;20034;-89
2022/07/01 03:39:45;;;;;;;2.92;2.10;;;12.70;74.80;;;;;;4997214;28;20026;-87
2022/07/01 03:42:11;;;;;;;4.65;2.45;;;12.70;74.80;;;;;;4994824;28;20030;-88
2022/07/01 03:44:37;;;;;;;2.00;1.60;;;12.60;75.30;;;;;;4979168;28;20045;-88
2022/07/01 03:47:05;;;;;;;2.08;1.70;;;12.70;75.00;;;;;;4976674;28;20393;-88
2022/07/01 03:49:32;;;;;;;9.27;2.00;;;12.70;75.00;;;;;;4978911;28;20481;-88
2022/07/01 03:51:58;;;;;;;3.03;2.35;;;12.70;74.50;;;;;;4975821;28;20124;-89
2022/07/01 03:54:29;;;;;;;2.80;1.85;;;12.60;74.70;;;;;;4977662;28;20030;-92
2022/07/01 03:57:09;;;;;;;5.93;1.98;;;12.60;74.60;;;;;;4976220;28;20030;-92
2022/07/01 03:59:36;;;;;;;3.30;1.70;;;12.50;75.30;;;;;;4982969;28;20027;-91
2022/07/01 04:02:04;;;;;;;2.17;1.88;;;12.60;75.30;;;;;;4977847;28;20038;-85
2022/07/01 04:04:30;;;;;;;3.08;1.98;;;12.50;75.40;;;;;;4995552;28;20026;-88
2022/07/01 04:06:58;;;;;;;2.17;1.80;;;12.40;74.90;;;;;;4994087;28;20038;-88
2022/07/01 04:09:25;;;;;;;2.28;1.73;;;12.30;75.10;;;;;;4976860;28;20027;-88
2022/07/01 04:11:51;;;;;;;2.13;1.83;;;12.30;75.30;;;;;;4979183;28;20085;-87
2022/07/01 04:14:17;;;;;;;2.30;2.05;;;12.40;75.00;;;;;;4994390;28;20185;-90
2022/07/01 04:16:44;;;;;;;2.95;1.63;;;12.40;74.70;;;;;;4995943;28;20073;-87
2022/07/01 04:19:12;;;;;;;1.90;1.48;;;12.40;75.00;;;;;;4997342;28;20535;-89
2022/07/01 04:24:22;;;;;;;1.88;1.60;;;12.30;75.30;;;;;;4997312;28;20085;-87
2022/07/01 04:26:48;;;;;;;3.38;2.00;;;12.30;75.10;;;;;;4995245;28;20080;-91
2022/07/01 04:29:14;;;;;;;2.67;2.00;;;12.30;75.50;;;;;;4996605;28;20488;-91
2022/07/01 04:31:40;;;;;;;5.68;2.20;;;12.20;75.80;;;;;;4997044;28;20045;-91
2022/07/01 04:34:07;;;;;;;3.88;1.92;;;12.20;75.40;;;;;;4990451;28;20030;-90
2022/07/01 04:36:33;;;;;;;5.63;2.03;;;12.30;75.50;;;;;;4974742;28;20023;-89
2022/07/01 04:38:59;;;;;;;2.83;1.95;;;12.30;75.40;;;;;;4986152;28;20027;-82
2022/07/01 04:44:09;;;;;;;2.88;2.05;;;12.40;75.20;;;;;;4996204;28;20464;-84
2022/07/01 04:46:35;;;;;;;2.97;1.90;;;12.30;75.50;;;;;;4981451;28;20027;-85
2022/07/01 04:49:01;;;;;;;2.58;2.00;;;12.40;75.40;;;;;;4975260;28;20402;-86
2022/07/01 04:51:28;;;;;;;4.65;2.40;;;12.40;74.90;;;;;;4976042;28;20467;-84
2022/07/01 04:53:54;;;;;;;2.42;2.03;;;12.50;74.90;;;;;;4974249;28;20035;-85
2022/07/01 04:56:19;;;;;;;4.10;2.70;;;12.50;74.90;;;;;;4988323;28;20057;-85
2022/07/01 04:58:45;;;;;;;4.25;2.10;;;12.50;74.90;;;;;;4974863;28;20043;-84
2022/07/01 05:01:11;;;;;;;2.58;1.90;;;12.50;75.30;;;;;;4988796;28;20869;-88
2022/07/01 05:03:37;;;;;;;3.03;2.00;;;12.50;75.30;;;;;;4999722;28;20035;-89
2022/07/01 05:06:03;;;;;;;3.65;2.03;;;12.50;74.70;;;;;;4976173;28;20023;-87
2022/07/01 05:08:28;;;;;;;4.55;2.13;;;12.50;74.60;;;;;;5000085;28;20057;-84
2022/07/01 05:10:54;;;;;;;1.92;1.75;;;12.40;75.10;;;;;;4997570;28;20035;-85
2022/07/01 05:13:20;;;;;;;3.97;1.77;;;12.50;75.40;;;;;;4998779;28;20023;-89
2022/07/01 05:15:45;;;;;;;3.17;2.05;;;12.50;75.20;;;;;;5013873;28;20023;-84
2022/07/01 05:23:39;;;;;;;2.75;1.77;;;12.50;75.90;;;;;;4998948;28;20037;-83
2022/07/01 05:26:05;;;;;;;3.72;1.80;;;12.50;76.00;;;;;;4982098;28;20022;-86
2022/07/01 05:28:31;;;;;;;3.78;1.90;;;12.60;76.00;;;;;;4986929;28;20117;-86
2022/07/01 05:30:57;;;;;;;3.17;2.35;;;12.60;76.00;;;;;;4982397;28;20078;-86
2022/07/01 05:33:26;;;;;;;3.38;2.35;;;12.60;76.80;;;;;;4989571;28;20513;-86
2022/07/01 05:35:54;;;;;;;3.80;2.25;;;12.60;76.60;;;;;;4987004;28;20046;-87
2022/07/01 05:38:20;;;;;;;3.55;2.03;;;12.60;77.10;;;;;;4978631;28;20093;-86
2022/07/01 05:40:53;;;;;;;4.68;1.95;;;12.60;76.60;;;;;;4989454;28;20030;-85
2022/07/01 05:43:19;;;;;;;6.15;2.33;;;12.70;76.90;;;;;;4997267;28;20066;-87
2022/07/01 05:45:45;;;;;;;3.03;2.05;;;12.70;77.00;;;;;;5013444;28;20026;-83
2022/07/01 05:48:18;;;;;;;3.13;1.80;;;12.70;77.10;;;;;;4992362;28;20091;-88
2022/07/01 05:50:57;;;;;;;;;;;;;;;;;;;;;
2022/07/01 05:54:04;;;;;;;2.95;2.03;;;12.70;77.30;;;;;;4995630;28;20027;-88
2022/07/01 05:56:57;;;;;;;4.13;1.98;;;12.70;77.80;;;;;;4995931;28;20412;-88
2022/07/01 05:59:55;;;;;;;4.85;2.20;;;12.70;78.50;;;;;;4979330;28;20054;-87
2022/07/01 06:02:21;;;;;;;3.45;2.40;;;12.80;78.20;;;;;;4997544;28;20492;-87
2022/07/01 06:04:47;;;;;;;3.22;2.38;;;12.80;77.60;;;;;;5012737;28;20022;-86
2022/07/01 06:07:12;;;;;;;7.20;2.50;;;12.80;78.10;;;;;;5006860;28;20382;-86
2022/07/01 06:09:38;;;;;;;6.05;3.30;;;12.80;78.10;;;;;;4994777;28;20038;-85
2022/07/01 06:12:05;;;;;;;3.22;2.63;;;12.80;79.10;;;;;;5002818;28;20031;-88
2022/07/01 06:14:31;;;;;;;4.53;2.80;;;12.80;79.20;;;;;;4987284;28;20458;-86
2022/07/01 06:16:57;;;;;;;3.30;2.22;;;12.90;78.40;;;;;;4985045;28;20101;-86
2022/07/01 06:19:23;;;;;;;2.67;2.28;;;12.90;78.80;;;;;;4984160;28;20094;-86
2022/07/01 06:21:49;;;;;;;5.07;2.60;;;13.00;78.50;;;;;;4981968;28;20042;-87
2022/07/01 06:24:14;;;;;;;3.80;2.33;;;13.00;79.30;;;;;;4977718;28;20528;-86
2022/07/01 06:26:40;;;;;;;5.43;2.38;;;13.00;79.00;;;;;;4978922;28;20038;-87
2022/07/01 06:29:06;;;;;;;6.57;3.22;;;13.10;79.90;;;;;;4988580;28;20033;-87
2022/07/01 06:31:35;;;;;;;5.68;2.45;;;13.20;79.20;;;;;;4997041;28;20037;-86
2022/07/01 06:34:01;;;;;;;3.83;2.53;;;13.20;79.60;;;;;;4986368;28;20038;-87
2022/07/01 06:36:27;;;;;;;5.65;3.17;;;13.20;80.60;;;;;;4991971;28;20062;-87
2022/07/01 06:38:52;;;;;;;4.45;2.53;;;13.20;81.20;;;;;;4976240;28;20569;-86
2022/07/01 06:41:27;;;;;;;6.55;2.00;;;13.20;81.20;;;;;;4977231;28;20030;-87
2022/07/01 06:43:58;;;;;;;5.20;3.10;;;13.30;80.30;;;;;;4977101;28;20514;-86
2022/07/01 06:46:25;;;;;;;4.60;2.85;;;13.40;80.70;;;;;;4977361;28;20375;-87
2022/07/01 06:48:51;;;;;;;4.25;2.70;;;13.40;80.70;;;;;;4990939;28;20038;-86
2022/07/01 06:51:17;;;;;;;4.45;2.83;;;13.50;80.10;;;;;;5011587;28;20033;-87
2022/07/01 06:53:44;;;;;;;5.30;2.58;;;13.60;80.40;;;;;;4995981;28;20076;-87
2022/07/01 06:56:11;;;;;;;6.70;2.88;;;13.70;78.90;;;;;;4991856;28;20026;-87
2022/07/01 06:58:37;;;;;;;4.47;2.22;;;13.70;79.50;;;;;;4976725;28;20058;-86
2022/07/01 07:01:04;;;;;;;7.50;2.25;;;13.70;79.80;;;;;;4983508;28;20094;-87
2022/07/01 07:03:31;;;;;;;7.35;2.58;;;13.80;80.20;;;;;;4976909;28;20058;-86
2022/07/01 07:06:00;;;;;;;5.38;2.28;;;13.80;80.60;;;;;;4976162;28;20031;-87
2022/07/01 07:08:29;;;;;;;8.90;2.20;;;13.90;80.50;;;;;;5014695;28;20021;-85
2022/07/01 07:10:55;;;;;;;3.92;1.92;;;13.90;80.00;;;;;;5001265;28;20505;-87
2022/07/01 07:13:21;;;;;;;4.97;2.20;;;14.00;80.40;;;;;;4998076;28;20030;-87
2022/07/01 07:15:47;;;;;;;9.48;2.80;;;14.10;80.40;;;;;;5011128;28;20065;-87
2022/07/01 07:18:13;;;;;;;5.97;2.25;;;14.20;79.40;;;;;;5001827;28;20045;-88
2022/07/01 07:20:39;;;;;;;4.03;2.13;;;14.30;79.10;;;;;;4976980;28;20394;-87
2022/07/01 07:23:05;;;;;;;4.75;2.10;;;14.30;79.20;;;;;;4976616;28;20061;-86
2022/07/01 07:25:30;;;;;;;2.85;1.90;;;14.30;79.80;;;;;;4975816;28;20045;-87
2022/07/01 07:27:56;;;;;;;5.97;1.90;;;14.40;80.70;;;;;;4976419;28;20034;-88
2022/07/01 07:30:22;;;;;;;4.22;1.63;;;14.60;79.80;;;;;;4975076;28;20109;-87
2022/07/01 07:32:48;;;;;;;6.95;1.85;;;14.80;78.40;;;;;;4976422;28;20023;-86
2022/07/01 07:35:14;;;;;;;6.45;2.33;;;15.00;77.80;;;;;;4976612;28;20394;-87
2022/07/01 07:37:40;;;;;;;5.18;1.83;;;15.40;76.10;;;;;;4976823;28;20035;-87
2022/07/01 07:40:09;;;;;;;6.70;2.00;;;16.50;75.00;;;;;;4976583;28;20023;-85
2022/07/01 07:42:36;;;;;;;3.55;1.55;;;17.70;70.00;;;;;;4994376;28;20026;-88
2022/07/01 07:45:03;;;;;;;4.20;0.80;;;20.90;60.40;;;;;;4994452;28;20037;-86
2022/07/01 07:47:29;;;;;;;3.08;0.77;;;24.00;52.90;;;;;;4989141;28;20043;-85
2022/07/01 07:49:54;;;;;;;6.47;0.80;;;24.00;50.20;;;;;;4995832;28;20034;-87
2022/07/01 07:52:20;;;;;;;3.33;0.82;;;25.20;46.10;;;;;;4994312;28;20053;-88
2022/07/01 07:54:46;;;;;;;2.90;0.50;;;27.00;40.90;;;;;;4995195;28;20049;-87
2022/07/01 07:57:12;;;;;;;1.33;0.28;;;29.00;40.30;;;;;;4995657;28;20035;-86
2022/07/01 07:59:37;;;;;;;2.30;0.50;;;27.50;38.20;;;;;;4995312;28;20109;-86
2022/07/01 08:02:03;;;;;;;3.90;0.50;;;26.20;41.00;;;;;;4984457;28;20039;-87
2022/07/01 08:04:29;;;;;;;1.73;0.60;;;28.80;38.40;;;;;;4983040;28;20050;-87
2022/07/01 08:06:55;;;;;;;2.15;0.40;;;30.80;34.90;;;;;;5002150;28;20085;-87
2022/07/01 08:09:20;;;;;;;2.67;0.50;;;31.10;31.70;;;;;;5030462;28;20034;-87
2022/07/01 08:11:46;;;;;;;1.67;0.40;;;31.70;32.30;;;;;;4999152;28;20030;-86
2022/07/01 08:14:12;;;;;;;2.20;0.40;;;29.70;33.00;;;;;;4995331;28;20481;-88
2022/07/01 08:16:38;;;;;;;3.83;0.50;;;30.50;31.80;;;;;;5006337;28;20030;-88
2022/07/01 08:19:04;;;;;;;2.00;0.30;;;27.80;35.10;;;;;;4975956;28;20038;-86
2022/07/01 08:21:30;;;;;;;0.98;0.30;;;26.80;36.90;;;;;;4990654;28;20026;-86
2022/07/01 08:23:56;;;;;;;1.27;0.43;;;25.40;39.80;;;;;;4975857;28;20059;-87
2022/07/01 08:26:22;;;;;;;3.03;0.60;;;25.70;39.80;;;;;;4980728;28;20682;-87
2022/07/01 08:28:47;;;;;;;2.30;0.50;;;28.40;35.30;;;;;;4975608;28;20102;-86
2022/07/01 08:31:13;;;;;;;4.15;0.50;;;30.30;33.50;;;;;;4975971;28;20066;-87
2022/07/01 08:33:43;;;;;;;5.07;0.60;;;32.00;30.70;;;;;;4975914;28;20456;-87
2022/07/01 08:36:09;;;;;;;1.80;0.52;;;33.00;29.70;;;;;;4974922;28;20034;-87
2022/07/01 08:38:38;;;;;;;1.63;0.40;;;32.80;29.10;;;;;;4974734;28;20098;-87
2022/07/01 08:41:04;;;;;;;1.95;0.45;;;33.50;28.10;;;;;;4983309;28;20033;-87
2022/07/01 08:43:30;;;;;;;2.25;0.30;;;33.40;27.70;;;;;;4996986;28;20030;-87
2022/07/01 08:45:58;;;;;;;2.47;0.40;;;34.30;26.60;;;;;;4999215;28;20069;-88
2022/07/01 08:48:24;;;;;;;3.08;0.38;;;34.20;25.60;;;;;;4998687;28;20121;-88
2022/07/01 08:50:50;;;;;;;1.13;0.40;;;32.20;28.50;;;;;;4997200;28;20057;-88
2022/07/01 08:53:16;;;;;;;2.40;0.73;;;32.40;27.20;;;;;;4979329;28;20030;-89
2022/07/01 08:58:29;;;;;;;2.00;0.40;;;33.50;28.40;;;;;;4990175;28;20138;-88
2022/07/01 09:01:16;;;;;;;1.70;0.40;;;34.20;25.90;;;;;;4997792;28;20026;-89
2022/07/01 09:03:41;;;;;;;3.63;0.57;;;35.20;25.80;;;;;;5014133;28;20030;-90
2022/07/01 09:06:17;;;;;;;2.90;0.40;;;35.10;25.20;;;;;;4998408;28;20037;-89
2022/07/01 09:08:44;;;;;;;2.05;0.50;;;35.40;25.40;;;;;;5034174;28;20447;-87
2022/07/01 09:11:12;;;;;;;1.85;0.68;;;34.80;24.90;;;;;;5012263;28;20692;-88
2022/07/01 09:13:38;;;;;;;1.95;0.30;;;32.30;27.80;;;;;;5006804;28;20031;-87
2022/07/01 09:16:14;;;;;;;4.50;0.50;;;31.30;29.50;;;;;;4979629;28;20089;-87
2022/07/01 09:18:40;;;;;;;2.30;0.40;;;30.30;30.60;;;;;;4978040;28;20173;-87
2022/07/01 09:21:13;;;;;;;1.00;0.17;;;31.90;28.30;;;;;;4995066;28;20058;-86
2022/07/01 09:23:41;;;;;;;1.38;0.20;;;30.90;30.30;;;;;;5002908;28;20026;-86
2022/07/01 09:26:18;;;;;;;0.53;0.30;;;30.80;30.50;;;;;;4995817;28;20110;-86
2022/07/01 09:28:53;;;;;;;2.58;0.52;;;32.10;28.60;;;;;;4997122;28;20035;-87
2022/07/01 09:31:18;;;;;;;1.27;0.30;;;33.00;27.60;;;;;;4997018;28;20034;-86
2022/07/01 09:33:44;;;;;;;1.45;0.40;;;34.10;26.90;;;;;;4998095;28;20113;-85
2022/07/01 09:36:16;;;;;;;1.75;0.40;;;34.60;26.50;;;;;;4980113;28;20039;-85
2022/07/01 09:38:50;;;;;;;1.98;0.47;;;35.20;24.70;;;;;;4977244;28;20097;-87
2022/07/01 09:41:16;;;;;;;1.70;0.40;;;34.30;26.20;;;;;;4988248;28;20517;-86
2022/07/01 09:43:41;;;;;;;5.32;0.57;;;33.20;26.00;;;;;;4997795;28;20049;-87
2022/07/01 09:46:11;;;;;;;1.58;0.30;;;34.30;26.60;;;;;;5002410;28;20025;-86
2022/07/01 09:48:36;;;;;;;0.77;0.10;;;32.80;26.50;;;;;;5023757;28;20034;-86
2022/07/01 09:51:04;;;;;;;1.90;0.20;;;30.30;29.30;;;;;;4977205;28;20034;-86
2022/07/01 09:53:30;;;;;;;1.58;0.38;;;29.40;32.10;;;;;;4993335;28;20106;-86
2022/07/01 09:55:56;;;;;;;1.02;0.30;;;28.60;32.90;;;;;;4993205;28;20041;-86
2022/07/01 09:58:22;;;;;;;2.40;0.50;;;27.50;34.40;;;;;;4995625;28;20405;-85
2022/07/01 10:00:48;;;;;;;1.40;0.35;;;27.30;34.40;;;;;;4992772;28;20022;-86
2022/07/01 10:03:17;;;;;;;1.30;0.38;;;27.10;34.90;;;;;;4978165;28;20105;-86
2022/07/01 10:05:48;;;;;;;2.87;0.47;;;26.90;35.30;;;;;;4978243;28;20035;-86
2022/07/01 10:08:32;;;;;;;3.00;0.43;;;26.80;35.20;;;;;;5011535;28;20504;-87
2022/07/01 10:11:44;;;;;;;1.73;0.30;;;27.20;34.40;;;;;;5008749;28;20485;-85
2022/07/01 10:14:14;;;;;;;1.00;0.50;;;27.00;35.50;;;;;;4977031;28;20082;-86
2022/07/01 10:16:40;;;;;;;1.60;0.38;;;27.60;34.80;;;;;;4992920;28;20041;-86
2022/07/01 10:19:25;;;;;;;2.83;0.40;;;28.10;33.60;;;;;;4976480;28;20031;-89
2022/07/01 10:21:55;;;;;;;2.58;0.38;;;27.20;35.00;;;;;;4976693;28;20019;-84
2022/07/01 10:24:21;;;;;;;1.85;0.40;;;26.80;35.80;;;;;;4982254;28;20030;-83
2022/07/01 10:26:47;;;;;;;2.03;0.65;;;26.10;36.50;;;;;;4997415;28;20030;-86
2022/07/01 10:29:32;;;;;;;1.23;0.38;;;25.60;36.30;;;;;;4997603;28;20184;-89
2022/07/01 10:32:02;;;;;;;3.00;0.43;;;25.20;38.20;;;;;;4989896;28;20167;-92
2022/07/01 10:34:39;;;;;;;1.90;0.30;;;24.80;38.10;;;;;;4976526;28;20045;-86
2022/07/01 10:37:08;;;;;;;1.63;0.40;;;24.60;39.50;;;;;;4977825;28;20038;-88
2022/07/01 10:40:06;;;;;;;0.47;0.20;;;24.70;39.00;;;;;;4976768;28;20061;-84
2022/07/01 10:42:58;;;;;;;2.92;1.13;;;24.90;38.90;;;;;;4982173;28;20035;-87
2022/07/01 10:45:24;;;;;;;3.30;1.60;;;25.30;37.80;;;;;;4987802;28;20080;-88
2022/07/01 10:48:19;;;;;;;3.47;1.25;;;25.50;38.60;;;;;;4996077;28;20030;-83
2022/07/01 10:50:47;;;;;;;2.22;0.50;;;25.60;38.60;;;;;;4995853;28;20079;-85
2022/07/01 10:53:13;;;;;;;4.57;1.58;;;25.70;38.20;;;;;;4995875;28;20034;-85
2022/07/01 10:55:44;;;;;;;1.88;0.50;;;25.70;38.60;;;;;;4996683;28;20038;-87
2022/07/01 10:58:11;;;;;;;4.70;0.60;;;25.50;38.80;;;;;;5000536;28;20046;-86
2022/07/01 11:00:41;;;;;;;1.52;0.38;;;25.40;39.00;;;;;;5001839;28;20057;-90
2022/07/01 11:03:09;;;;;;;1.27;0.43;;;25.20;39.40;;;;;;4995694;28;20030;-84
2022/07/01 11:05:35;;;;;;;2.38;0.40;;;25.10;39.20;;;;;;4979357;28;20117;-89
2022/07/01 11:08:02;;;;;;;3.33;0.60;;;24.90;39.00;;;;;;4976994;28;20635;-82
2022/07/01 11:10:27;;;;;;;1.77;0.32;;;25.30;38.90;;;;;;4975841;28;20031;-85
2022/07/01 11:12:53;;;;;;;1.15;0.20;;;25.50;39.20;;;;;;5002558;28;20039;-88
2022/07/01 11:15:20;;;;;;;1.10;0.32;;;25.50;39.10;;;;;;4976813;28;20033;-88
2022/07/01 11:17:48;;;;;;;2.28;0.30;;;25.40;38.50;;;;;;4976948;28;20033;-86
2022/07/01 11:20:15;;;;;;;1.38;0.20;;;25.50;38.00;;;;;;4975615;28;20050;-86
2022/07/01 11:22:40;;;;;;;1.00;0.30;;;25.50;38.20;;;;;;4976864;28;20025;-88
2022/07/01 11:25:11;;;;;;;0.77;0.30;;;25.80;37.80;;;;;;4985006;28;20142;-90
2022/07/01 11:27:38;;;;;;;1.58;0.50;;;26.00;38.00;;;;;;4976311;28;20508;-93
2022/07/01 11:30:11;;;;;;;3.53;0.60;;;26.00;36.40;;;;;;4989666;28;20039;-91
2022/07/01 11:32:43;;;;;;;3.50;0.75;;;25.80;36.70;;;;;;4982799;28;20114;-90
2022/07/01 11:40:57;;;;;;;1.80;0.40;;;25.20;37.20;;;;;;4983820;28;19960;-86
2022/07/01 11:43:29;;;;;;;2.35;1.30;;;24.90;37.90;;;;;;4986648;28;20064;-87
2022/07/01 11:45:56;;;;;;;19.02;11.57;;;24.80;38.70;;;;;;4981371;28;20129;-84
2022/07/01 11:48:52;;;;;;;12.02;6.90;;;24.90;38.70;;;;;;4987490;28;20466;-85
2022/07/01 11:51:22;;;;;;;3.10;0.77;;;25.20;38.60;;;;;;4971572;28;20042;-86
2022/07/01 11:53:54;;;;;;;5.00;0.32;;;25.20;37.90;;;;;;4992946;28;20084;-85
2022/07/01 11:56:33;;;;;;;1.25;0.30;;;24.90;38.10;;;;;;4999118;28;20022;-85
2022/07/01 11:59:01;;;;;;;0.73;0.30;;;24.70;38.60;;;;;;4985520;28;20054;-84
2022/07/01 12:01:34;;;;;;;2.13;0.30;;;24.80;38.70;;;;;;4985203;28;20050;-86
2022/07/01 12:04:02;;;;;;;0.52;0.17;;;24.80;37.50;;;;;;4984102;28;20031;-86
2022/07/01 12:06:28;;;;;;;0.52;0.30;;;24.80;39.10;;;;;;4988536;28;20436;-86
2022/07/01 12:08:56;;;;;;;2.05;0.40;;;25.00;38.10;;;;;;4980455;28;20118;-86
2022/07/01 12:11:24;;;;;;;4.60;0.40;;;25.10;38.80;;;;;;4982564;28;20030;-86
2022/07/01 12:13:50;;;;;;;2.60;0.40;;;25.30;38.60;;;;;;4984784;28;20509;-84
2022/07/01 12:16:17;;;;;;;2.92;0.60;;;25.20;36.70;;;;;;4985331;28;20035;-86
2022/07/01 12:18:59;;;;;;;2.92;0.40;;;25.30;37.40;;;;;;4984987;28;20054;-85
2022/07/01 12:21:26;;;;;;;1.15;0.38;;;25.30;37.90;;;;;;4988093;28;20054;-85
2022/07/01 12:24:13;;;;;;;5.82;1.50;;;25.10;38.60;;;;;;4989202;28;20025;-85
2022/07/01 12:26:53;;;;;;;5.45;0.75;;;25.40;38.80;;;;;;4990241;28;20547;-86
2022/07/01 12:29:22;;;;;;;1.98;0.20;;;25.60;38.40;;;;;;4982515;28;20062;-87
2022/07/01 12:31:58;;;;;;;1.20;0.20;;;25.70;37.20;;;;;;4988646;28;20019;-89
2022/07/01 12:34:36;;;;;;;2.38;0.63;;;25.30;36.50;;;;;;5006422;28;20023;-88
2022/07/01 12:37:01;;;;;;;2.88;0.50;;;25.40;36.40;;;;;;4998005;28;20039;-87
2022/07/01 12:39:28;;;;;;;1.83;0.20;;;25.20;37.40;;;;;;4996001;28;20432;-88
2022/07/01 12:41:53;;;;;;;1.50;0.40;;;25.20;36.80;;;;;;4996955;28;20113;-88
2022/07/01 12:44:21;;;;;;;0.43;0.20;;;25.20;38.10;;;;;;4995868;28;20061;-87
2022/07/01 12:46:47;;;;;;;1.80;0.30;;;25.30;37.70;;;;;;5013562;28;20030;-86
2022/07/01 12:49:25;;;;;;;0.50;0.20;;;25.10;36.50;;;;;;4998749;28;20030;-87
2022/07/01 12:51:51;;;;;;;1.05;0.30;;;25.10;37.80;;;;;;5025335;28;20068;-88
2022/07/01 12:54:34;;;;;;;2.70;0.40;;;25.00;37.70;;;;;;4996448;28;20393;-87
2022/07/01 12:57:00;;;;;;;2.20;0.50;;;25.10;37.50;;;;;;4981097;28;20043;-87
2022/07/01 12:59:27;;;;;;;1.65;0.30;;;25.30;38.10;;;;;;4979328;28;20038;-87
2022/07/01 13:01:54;;;;;;;0.90;0.30;;;25.30;37.80;;;;;;4994465;28;20030;-87
2022/07/01 13:04:27;;;;;;;1.38;0.35;;;25.10;37.70;;;;;;4998019;28;20065;-87
2022/07/01 13:06:53;;;;;;;0.70;0.20;;;24.90;36.80;;;;;;5002660;28;20060;-87
2022/07/01 13:09:19;;;;;;;0.50;0.20;;;25.00;38.90;;;;;;5005649;28;20022;-88
2022/07/01 13:11:45;;;;;;;0.70;0.10;;;25.00;38.80;;;;;;4987193;28;20026;-86
2022/07/01 13:14:11;;;;;;;0.70;0.20;;;25.00;39.10;;;;;;4979024;28;20379;-87